Time,TemperatureF,DewpointF,PressureIn,WindDirection,WindDirectionDegrees,WindSpeedMPH,WindSpeedGustMPH,Humidity,HourlyPrecipIn,Conditions,Clouds,dailyrainin,SoftwareType,DateUTC
2013-01-04 00:00:00,12.5,8.3,30.37,WSW,252,7.0,9.0,83,0.00,,---,0.00,VWS V14.01,2013-01-04 06:00:00,
2013-01-04 00:04:00,13.8,9.3,30.38,WSW,252,9.0,11.0,82,0.00,,---,0.00,VWS V14.01,2013-01-04 06:04:00,
2013-01-04 00:09:00,13.7,9.2,30.38,WSW,256,8.0,11.0,82,0.00,,---,0.00,VWS V14.01,2013-01-04 06:09:00,
2013-01-04 00:14:00,13.6,9.1,30.38,WSW,256,9.0,11.0,82,0.00,,---,0.00,VWS V14.01,2013-01-04 06:14:00,
2013-01-04 00:19:00,13.6,9.1,30.37,WSW,257,8.0,11.0,82,0.00,,---,0.00,VWS V14.01,2013-01-04 06:19:00,
2013-01-04 00:24:00,13.6,9.1,30.38,WSW,257,9.0,11.0,82,0.00,,---,0.00,VWS V14.01,2013-01-04 06:24:00,
2013-01-04 00:29:00,13.4,8.9,30.37,West,263,6.0,8.0,82,0.00,,---,0.00,VWS V14.01,2013-01-04 06:29:00,
2013-01-04 00:30:00,11.8,7.9,30.37,WSW,257,6.0,8.0,84,0.00,,---,0.00,VWS V14.01,2013-01-04 06:30:00,
2013-01-04 00:34:00,13.2,8.8,30.38,WSW,247,8.0,9.0,82,0.00,,---,0.00,VWS V14.01,2013-01-04 06:34:00,
2013-01-04 00:40:00,13.1,8.6,30.37,WSW,243,8.0,9.0,82,0.00,,---,0.00,VWS V14.01,2013-01-04 06:40:00,
2013-01-04 00:45:00,12.9,8.7,30.37,WSW,251,6.0,9.0,83,0.00,,---,0.00,VWS V14.01,2013-01-04 06:45:00,
2013-01-04 00:50:00,12.7,8.3,30.37,WSW,255,6.0,9.0,82,0.00,,---,0.00,VWS V14.01,2013-01-04 06:50:00,
2013-01-04 00:55:00,12.6,8.4,30.37,WSW,245,8.0,9.0,83,0.00,,---,0.00,VWS V14.01,2013-01-04 06:55:00,
2013-01-04 01:00:00,12.5,8.3,30.37,WSW,244,5.0,7.0,83,0.00,,---,0.00,VWS V14.01,2013-01-04 07:00:00,
2013-01-04 01:05:00,12.4,8.2,30.37,WSW,243,6.0,7.0,83,0.00,,---,0.00,VWS V14.01,2013-01-04 07:05:00,
2013-01-04 01:10:00,12.2,8.0,30.37,WSW,248,6.0,8.0,83,0.00,,---,0.00,VWS V14.01,2013-01-04 07:10:00,
2013-01-04 01:15:00,11.9,7.7,30.37,West,263,5.0,8.0,83,0.00,,---,0.00,VWS V14.01,2013-01-04 07:15:00,
2013-01-04 01:20:00,11.7,7.8,30.37,WSW,246,6.0,8.0,84,0.00,,---,0.00,VWS V14.01,2013-01-04 07:20:00,
2013-01-04 01:25:00,11.9,8.0,30.37,WSW,246,6.0,8.0,84,0.00,,---,0.00,VWS V14.01,2013-01-04 07:25:00,
2013-01-04 01:30:00,11.7,7.8,30.37,WSW,254,7.0,7.0,84,0.00,,---,0.00,VWS V14.01,2013-01-04 07:30:00,
2013-01-04 01:35:00,11.6,7.7,30.37,WSW,257,4.0,7.0,84,0.00,,---,0.00,VWS V14.01,2013-01-04 07:35:00,
2013-01-04 01:40:00,11.4,7.5,30.37,West,262,6.0,7.0,84,0.00,,---,0.00,VWS V14.01,2013-01-04 07:40:00,
2013-01-04 01:45:00,11.4,7.8,30.37,West,261,5.0,7.0,85,0.00,,---,0.00,VWS V14.01,2013-01-04 07:45:00,
2013-01-04 01:50:00,11.4,7.8,30.37,West,263,5.0,7.0,85,0.00,,---,0.00,VWS V14.01,2013-01-04 07:50:00,
2013-01-04 01:55:00,11.5,7.9,30.37,WSW,250,5.0,7.0,85,0.00,,---,0.00,VWS V14.01,2013-01-04 07:55:00,
2013-01-04 02:00:00,11.4,7.8,30.36,West,276,6.0,6.0,85,0.00,,---,0.00,VWS V14.01,2013-01-04 08:00:00,
2013-01-04 02:06:00,11.1,7.2,30.36,WNW,284,6.0,6.0,84,0.00,,---,0.00,VWS V14.01,2013-01-04 08:06:00,
2013-01-04 02:11:00,10.8,6.9,30.36,WNW,294,6.0,7.0,84,0.00,,---,0.00,VWS V14.01,2013-01-04 08:11:00,
2013-01-04 02:16:00,10.4,6.5,30.36,WNW,284,6.0,7.0,84,0.00,,---,0.00,VWS V14.01,2013-01-04 08:16:00,
2013-01-04 02:21:00,10.4,7.1,30.36,West,261,5.0,7.0,86,0.00,,---,0.00,VWS V14.01,2013-01-04 08:21:00,
2013-01-04 02:26:00,11.0,7.9,30.37,WSW,238,3.0,7.0,87,0.00,,---,0.00,VWS V14.01,2013-01-04 08:26:00,
2013-01-04 02:30:00,11.2,7.8,30.37,WSW,240,4.0,6.0,86,0.00,,---,0.00,VWS V14.01,2013-01-04 08:30:00,
2013-01-04 02:31:00,11.4,8.0,30.37,SSW,201,1.0,4.0,86,0.00,,---,0.00,VWS V14.01,2013-01-04 08:31:00,
2013-01-04 02:36:00,11.5,7.9,30.38,SSW,209,2.0,6.0,85,0.00,,---,0.00,VWS V14.01,2013-01-04 08:36:00,
2013-01-04 02:41:00,11.7,8.3,30.37,SW,232,3.0,6.0,86,0.00,,---,0.00,VWS V14.01,2013-01-04 08:41:00,
2013-01-04 02:46:00,11.8,8.2,30.38,SW,234,1.0,6.0,85,0.00,,---,0.00,VWS V14.01,2013-01-04 08:46:00,
2013-01-04 02:51:00,11.9,8.3,30.37,SSW,193,3.0,6.0,85,0.00,,---,0.00,VWS V14.01,2013-01-04 08:51:00,
2013-01-04 02:56:00,11.9,8.3,30.37,WSW,251,4.0,6.0,85,0.00,,---,0.00,VWS V14.01,2013-01-04 08:56:00,
2013-01-04 03:00:00,10.8,7.4,30.36,SW,229,3.0,5.0,86,0.00,,---,0.00,VWS V14.01,2013-01-04 09:00:00,
2013-01-04 03:01:00,11.8,8.2,30.37,SW,232,4.0,4.0,85,0.00,,---,0.00,VWS V14.01,2013-01-04 09:01:00,
2013-01-04 03:06:00,11.7,8.1,30.37,SW,231,1.0,6.0,85,0.00,,---,0.00,VWS V14.01,2013-01-04 09:06:00,
2013-01-04 03:11:00,11.6,8.0,30.37,SW,233,3.0,6.0,85,0.00,,---,0.00,VWS V14.01,2013-01-04 09:11:00,
2013-01-04 03:16:00,11.5,7.9,30.37,SW,234,4.0,6.0,85,0.00,,---,0.00,VWS V14.01,2013-01-04 09:16:00,
2013-01-04 03:22:00,11.3,7.7,30.37,SW,235,1.0,6.0,85,0.00,,---,0.00,VWS V14.01,2013-01-04 09:22:00,
2013-01-04 03:27:00,11.2,7.6,30.37,WSW,240,4.0,6.0,85,0.00,,---,0.00,VWS V14.01,2013-01-04 09:27:00,
2013-01-04 03:30:00,11.2,7.8,30.36,WSW,242,3.0,7.0,86,0.00,,---,0.00,VWS V14.01,2013-01-04 09:30:00,
2013-01-04 03:32:00,11.1,7.7,30.37,WSW,243,4.0,5.0,86,0.00,,---,0.00,VWS V14.01,2013-01-04 09:32:00,
2013-01-04 03:37:00,11.1,7.7,30.37,WSW,238,2.0,5.0,86,0.00,,---,0.00,VWS V14.01,2013-01-04 09:37:00,
2013-01-04 03:42:00,10.9,7.5,30.36,SW,232,1.0,5.0,86,0.00,,---,0.00,VWS V14.01,2013-01-04 09:42:00,
2013-01-04 03:47:00,10.8,7.4,30.36,SW,231,2.0,5.0,86,0.00,,---,0.00,VWS V14.01,2013-01-04 09:47:00,
2013-01-04 03:52:00,10.8,7.4,30.36,WSW,237,2.0,5.0,86,0.00,,---,0.00,VWS V14.01,2013-01-04 09:52:00,
2013-01-04 03:57:00,10.8,7.4,30.36,SW,232,2.0,5.0,86,0.00,,---,0.00,VWS V14.01,2013-01-04 09:57:00,
2013-01-04 04:00:00,12.1,8.7,30.36,WSW,252,6.0,11.0,86,0.00,,---,0.00,VWS V14.01,2013-01-04 10:00:00,
2013-01-04 04:02:00,10.8,7.4,30.36,SW,229,2.0,4.0,86,0.00,,---,0.00,VWS V14.01,2013-01-04 10:02:00,
2013-01-04 04:07:00,10.8,7.4,30.36,SW,229,3.0,4.0,86,0.00,,---,0.00,VWS V14.01,2013-01-04 10:07:00,
2013-01-04 04:12:00,10.8,7.7,30.36,SW,233,5.0,6.0,87,0.00,,---,0.00,VWS V14.01,2013-01-04 10:12:00,
2013-01-04 04:18:00,11.0,7.9,30.36,SW,234,5.0,7.0,87,0.00,,---,0.00,VWS V14.01,2013-01-04 10:18:00,
2013-01-04 04:23:00,11.1,8.0,30.36,SW,234,3.0,7.0,87,0.00,,---,0.00,VWS V14.01,2013-01-04 10:23:00,
2013-01-04 04:28:00,11.2,7.8,30.36,SW,235,4.0,7.0,86,0.00,,---,0.00,VWS V14.01,2013-01-04 10:28:00,
2013-01-04 04:30:00,12.4,8.8,30.36,SW,230,0.0,12.0,85,0.00,,---,0.00,VWS V14.01,2013-01-04 10:30:00,
2013-01-04 04:33:00,11.3,8.2,30.37,WSW,238,9.0,9.0,87,0.00,,---,0.00,VWS V14.01,2013-01-04 10:33:00,
2013-01-04 04:38:00,11.5,8.4,30.36,WSW,240,5.0,11.0,87,0.00,,---,0.00,VWS V14.01,2013-01-04 10:38:00,
2013-01-04 04:43:00,11.7,8.3,30.36,SW,236,4.0,11.0,86,0.00,,---,0.00,VWS V14.01,2013-01-04 10:43:00,
2013-01-04 04:48:00,11.8,8.4,30.36,WSW,237,5.0,11.0,86,0.00,,---,0.00,VWS V14.01,2013-01-04 10:48:00,
2013-01-04 04:53:00,11.9,8.5,30.36,WSW,250,5.0,11.0,86,0.00,,---,0.00,VWS V14.01,2013-01-04 10:53:00,
2013-01-04 04:58:00,12.1,8.7,30.36,WSW,241,10.0,11.0,86,0.00,,---,0.00,VWS V14.01,2013-01-04 10:58:00,
2013-01-04 05:00:00,11.9,8.5,30.35,SW,226,5.0,9.0,86,0.00,,---,0.00,VWS V14.01,2013-01-04 11:00:00,
2013-01-04 05:03:00,12.3,8.9,30.36,WSW,240,6.0,10.0,86,0.00,,---,0.00,VWS V14.01,2013-01-04 11:03:00,
2013-01-04 05:08:00,12.4,8.8,30.36,WSW,242,9.0,10.0,85,0.00,,---,0.00,VWS V14.01,2013-01-04 11:08:00,
2013-01-04 05:13:00,12.7,9.1,30.36,WSW,242,6.0,12.0,85,0.00,,---,0.00,VWS V14.01,2013-01-04 11:13:00,
2013-01-04 05:18:00,12.6,9.0,30.36,SW,234,5.0,12.0,85,0.00,,---,0.00,VWS V14.01,2013-01-04 11:18:00,
2013-01-04 05:23:00,12.4,8.8,30.36,WSW,242,3.0,12.0,85,0.00,,---,0.00,VWS V14.01,2013-01-04 11:23:00,
2013-01-04 05:28:00,12.4,8.8,30.36,SW,230,0.0,12.0,85,0.00,,---,0.00,VWS V14.01,2013-01-04 11:28:00,
2013-01-04 05:30:00,11.4,8.0,30.35,SW,232,3.0,9.0,86,0.00,,---,0.00,VWS V14.01,2013-01-04 11:30:00,
2013-01-04 05:33:00,12.0,8.4,30.36,SW,230,6.0,6.0,85,0.00,,---,0.00,VWS V14.01,2013-01-04 11:33:00,
2013-01-04 05:39:00,11.9,8.3,30.36,SW,229,5.0,7.0,85,0.00,,---,0.00,VWS V14.01,2013-01-04 11:39:00,
2013-01-04 05:44:00,11.8,8.2,30.36,WSW,240,1.0,7.0,85,0.00,,---,0.00,VWS V14.01,2013-01-04 11:44:00,
2013-01-04 05:49:00,11.8,8.4,30.35,SW,225,4.0,9.0,86,0.00,,---,0.00,VWS V14.01,2013-01-04 11:49:00,
2013-01-04 05:54:00,11.8,8.4,30.35,WSW,237,2.0,9.0,86,0.00,,---,0.00,VWS V14.01,2013-01-04 11:54:00,
2013-01-04 05:59:00,11.8,8.4,30.35,SW,230,3.0,6.0,86,0.00,,---,0.00,VWS V14.01,2013-01-04 11:59:00,
2013-01-04 06:00:00,11.3,8.2,30.36,SW,233,6.0,8.0,87,0.00,,---,0.00,VWS V14.01,2013-01-04 12:00:00,
2013-01-04 06:04:00,11.8,8.4,30.35,SW,228,3.0,8.0,86,0.00,,---,0.00,VWS V14.01,2013-01-04 12:04:00,
2013-01-04 06:09:00,11.7,8.3,30.35,SW,232,7.0,8.0,86,0.00,,---,0.00,VWS V14.01,2013-01-04 12:09:00,
2013-01-04 06:14:00,11.6,8.2,30.35,SW,236,5.0,8.0,86,0.00,,---,0.00,VWS V14.01,2013-01-04 12:14:00,
2013-01-04 06:19:00,11.5,8.1,30.35,SW,234,5.0,8.0,86,0.00,,---,0.00,VWS V14.01,2013-01-04 12:19:00,
2013-01-04 06:24:00,11.5,8.1,30.35,SW,227,5.0,9.0,86,0.00,,---,0.00,VWS V14.01,2013-01-04 12:24:00,
2013-01-04 06:29:00,11.4,8.0,30.35,SW,229,5.0,6.0,86,0.00,,---,0.00,VWS V14.01,2013-01-04 12:29:00,
2013-01-04 06:30:00,11.7,8.6,30.35,SW,228,5.0,8.0,87,0.00,,---,0.00,VWS V14.01,2013-01-04 12:30:00,
2013-01-04 06:34:00,11.3,7.9,30.36,SW,236,6.0,7.0,86,0.00,,---,0.00,VWS V14.01,2013-01-04 12:34:00,
2013-01-04 06:39:00,11.3,7.9,30.36,SW,232,4.0,7.0,86,0.00,,---,0.00,VWS V14.01,2013-01-04 12:39:00,
2013-01-04 06:44:00,11.2,8.1,30.36,SW,229,6.0,7.0,87,0.00,,---,0.00,VWS V14.01,2013-01-04 12:44:00,
2013-01-04 06:49:00,11.2,7.8,30.36,WSW,237,3.0,7.0,86,0.00,,---,0.00,VWS V14.01,2013-01-04 12:49:00,
2013-01-04 06:54:00,11.2,8.1,30.36,SW,225,4.0,8.0,87,0.00,,---,0.00,VWS V14.01,2013-01-04 12:54:00,
2013-01-04 06:59:00,11.3,8.2,30.36,SW,235,5.0,6.0,87,0.00,,---,0.00,VWS V14.01,2013-01-04 12:59:00,
2013-01-04 07:00:00,12.9,9.5,30.35,SW,232,4.0,8.0,86,0.00,,---,0.00,VWS V14.01,2013-01-04 13:00:00,
2013-01-04 07:04:00,11.3,8.2,30.36,WSW,238,5.0,7.0,87,0.00,,---,0.00,VWS V14.01,2013-01-04 13:04:00,
2013-01-04 07:09:00,11.4,8.3,30.36,SW,232,4.0,8.0,87,0.00,,---,0.00,VWS V14.01,2013-01-04 13:09:00,
2013-01-04 07:15:00,11.5,8.4,30.35,SW,230,6.0,8.0,87,0.00,,---,0.00,VWS V14.01,2013-01-04 13:15:00,
2013-01-04 07:20:00,11.5,8.4,30.35,SW,232,4.0,8.0,87,0.00,,---,0.00,VWS V14.01,2013-01-04 13:20:00,
2013-01-04 07:25:00,11.6,8.5,30.35,SW,236,5.0,8.0,87,0.00,,---,0.00,VWS V14.01,2013-01-04 13:25:00,
2013-01-04 07:30:00,11.7,8.6,30.35,WSW,237,2.0,5.0,87,0.00,,---,0.00,VWS V14.01,2013-01-04 13:30:00,
2013-01-04 07:35:00,11.8,8.7,30.35,WSW,237,4.0,6.0,87,0.00,,---,0.00,VWS V14.01,2013-01-04 13:35:00,
2013-01-04 07:40:00,11.9,8.8,30.35,SW,232,3.0,7.0,87,0.00,,---,0.00,VWS V14.01,2013-01-04 13:40:00,
2013-01-04 07:45:00,12.2,9.1,30.35,SW,236,5.0,7.0,87,0.00,,---,0.00,VWS V14.01,2013-01-04 13:45:00,
2013-01-04 07:50:00,12.4,9.3,30.35,SW,236,4.0,7.0,87,0.00,,---,0.00,VWS V14.01,2013-01-04 13:50:00,
2013-01-04 07:55:00,12.7,9.6,30.35,SW,230,6.0,8.0,87,0.00,,---,0.00,VWS V14.01,2013-01-04 13:55:00,
2013-01-04 08:00:00,13.0,9.9,30.35,SW,232,3.0,6.0,87,0.00,,---,0.00,VWS V14.01,2013-01-04 14:00:00,
2013-01-04 08:05:00,13.4,10.0,30.36,SW,229,7.0,7.0,86,0.00,,---,0.00,VWS V14.01,2013-01-04 14:05:00,
2013-01-04 08:10:00,13.7,10.3,30.36,SW,232,5.0,9.0,86,0.00,,---,0.00,VWS V14.01,2013-01-04 14:10:00,
2013-01-04 08:15:00,14.1,10.4,30.36,SW,230,6.0,9.0,85,0.00,,---,0.00,VWS V14.01,2013-01-04 14:15:00,
2013-01-04 08:20:00,14.5,10.8,30.37,SW,236,4.0,9.0,85,0.00,,---,0.00,VWS V14.01,2013-01-04 14:20:00,
2013-01-04 08:26:00,14.8,11.1,30.36,WSW,241,6.0,9.0,85,0.00,,---,0.00,VWS V14.01,2013-01-04 14:26:00,
2013-01-04 08:30:00,20.8,16.5,30.36,SW,230,8.0,17.0,83,0.00,,---,0.00,VWS V14.01,2013-01-04 14:30:00,
2013-01-04 08:31:00,15.1,11.1,30.36,WSW,243,5.0,8.0,84,0.00,,---,0.00,VWS V14.01,2013-01-04 14:31:00,
2013-01-04 08:36:00,15.5,11.5,30.36,SW,224,10.0,10.0,84,0.00,,---,0.00,VWS V14.01,2013-01-04 14:36:00,
2013-01-04 08:41:00,15.8,11.8,30.36,WSW,240,9.0,10.0,84,0.00,,---,0.00,VWS V14.01,2013-01-04 14:41:00,
2013-01-04 08:46:00,16.3,12.3,30.36,WSW,242,5.0,10.0,84,0.00,,---,0.00,VWS V14.01,2013-01-04 14:46:00,
2013-01-04 08:51:00,16.8,12.8,30.36,SW,215,7.0,11.0,84,0.00,,---,0.00,VWS V14.01,2013-01-04 14:51:00,
2013-01-04 08:56:00,17.0,13.0,30.36,SW,232,5.0,11.0,84,0.00,,---,0.00,VWS V14.01,2013-01-04 14:56:00,
2013-01-04 09:00:00,23.3,18.6,30.37,WSW,240,14.0,17.0,82,0.00,,---,0.00,VWS V14.01,2013-01-04 15:00:00,
2013-01-04 09:01:00,17.9,13.9,30.37,WSW,247,5.0,11.0,84,0.00,,---,0.00,VWS V14.01,2013-01-04 15:01:00,
2013-01-04 09:06:00,18.3,14.3,30.37,WSW,237,8.0,11.0,84,0.00,,---,0.00,VWS V14.01,2013-01-04 15:06:00,
2013-01-04 09:11:00,18.9,14.9,30.37,WSW,248,14.0,14.0,84,0.00,,---,0.00,VWS V14.01,2013-01-04 15:11:00,
2013-01-04 09:16:00,19.5,15.5,30.37,South,180,2.0,14.0,84,0.00,,---,0.00,VWS V14.01,2013-01-04 15:16:00,
2013-01-04 09:21:00,20.0,15.7,30.37,SW,234,12.0,14.0,83,0.00,,---,0.00,VWS V14.01,2013-01-04 15:21:00,
2013-01-04 09:26:00,20.6,16.3,30.36,SW,225,5.0,17.0,83,0.00,,---,0.00,VWS V14.01,2013-01-04 15:26:00,
2013-01-04 09:30:00,25.2,19.9,30.37,WSW,248,7.0,16.0,80,0.00,,---,0.00,VWS V14.01,2013-01-04 15:30:00,
2013-01-04 09:31:00,21.1,16.8,30.37,WSW,243,11.0,11.0,83,0.00,,---,0.00,VWS V14.01,2013-01-04 15:31:00,
2013-01-04 09:36:00,21.7,17.3,30.37,WSW,244,7.0,11.0,83,0.00,,---,0.00,VWS V14.01,2013-01-04 15:36:00,
2013-01-04 09:41:00,22.1,17.7,30.37,WSW,237,7.0,16.0,83,0.00,,---,0.00,VWS V14.01,2013-01-04 15:41:00,
2013-01-04 09:46:00,22.5,17.9,30.37,WSW,246,11.0,16.0,82,0.00,,---,0.00,VWS V14.01,2013-01-04 15:46:00,
2013-01-04 09:52:00,22.9,18.2,30.37,SW,234,8.0,17.0,82,0.00,,---,0.00,VWS V14.01,2013-01-04 15:52:00,
2013-01-04 09:57:00,23.2,18.5,30.37,WSW,250,5.0,17.0,82,0.00,,---,0.00,VWS V14.01,2013-01-04 15:57:00,
2013-01-04 10:00:00,27.2,21.3,30.36,WSW,244,12.0,20.0,78,0.00,,---,0.00,VWS V14.01,2013-01-04 16:00:00,
2013-01-04 10:02:00,23.5,19.1,30.37,SW,232,1.0,14.0,83,0.00,,---,0.00,VWS V14.01,2013-01-04 16:02:00,
2013-01-04 10:07:00,24.0,19.3,30.37,WSW,252,5.0,14.0,82,0.00,,---,0.00,VWS V14.01,2013-01-04 16:07:00,
2013-01-04 10:12:00,24.3,19.3,30.37,SW,231,6.0,16.0,81,0.00,,---,0.00,VWS V14.01,2013-01-04 16:12:00,
2013-01-04 10:17:00,24.7,19.7,30.37,WSW,238,3.0,16.0,81,0.00,,---,0.00,VWS V14.01,2013-01-04 16:17:00,
2013-01-04 10:22:00,24.9,19.9,30.37,WSW,240,9.0,16.0,81,0.00,,---,0.00,VWS V14.01,2013-01-04 16:22:00,
2013-01-04 10:27:00,25.2,20.2,30.37,SW,236,13.0,16.0,81,0.00,,---,0.00,VWS V14.01,2013-01-04 16:27:00,
2013-01-04 10:30:00,28.7,22.1,30.34,WSW,255,13.0,21.0,76,0.00,,---,0.00,VWS V14.01,2013-01-04 16:30:00,
2013-01-04 10:32:00,25.6,20.6,30.36,SW,230,9.0,12.0,81,0.00,,---,0.00,VWS V14.01,2013-01-04 16:32:00,
2013-01-04 10:37:00,26.0,20.7,30.37,WSW,244,8.0,14.0,80,0.00,,---,0.00,VWS V14.01,2013-01-04 16:37:00,
2013-01-04 10:42:00,26.3,21.0,30.37,SW,216,3.0,15.0,80,0.00,,---,0.00,VWS V14.01,2013-01-04 16:42:00,
2013-01-04 10:47:00,26.9,21.6,30.36,SW,234,3.0,15.0,80,0.00,,---,0.00,VWS V14.01,2013-01-04 16:47:00,
2013-01-04 10:52:00,27.1,21.5,30.36,WSW,240,5.0,17.0,79,0.00,,---,0.00,VWS V14.01,2013-01-04 16:52:00,
2013-01-04 10:57:00,27.2,21.3,30.36,SW,236,9.0,20.0,78,0.00,,---,0.00,VWS V14.01,2013-01-04 16:57:00,
2013-01-04 11:00:00,29.7,22.8,30.33,WSW,238,11.0,25.0,75,0.00,,---,0.00,VWS V14.01,2013-01-04 17:00:00,
2013-01-04 11:02:00,27.4,21.5,30.36,SW,232,6.0,17.0,78,0.00,,---,0.00,VWS V14.01,2013-01-04 17:02:00,
2013-01-04 11:07:00,27.6,21.4,30.36,WSW,245,7.0,19.0,77,0.00,,---,0.00,VWS V14.01,2013-01-04 17:07:00,
2013-01-04 11:13:00,27.7,21.8,30.35,WSW,252,9.0,21.0,78,0.00,,---,0.00,VWS V14.01,2013-01-04 17:13:00,
2013-01-04 11:18:00,28.0,21.7,30.35,West,260,11.0,21.0,77,0.00,,---,0.00,VWS V14.01,2013-01-04 17:18:00,
2013-01-04 11:23:00,28.4,22.4,30.35,SW,234,20.0,21.0,78,0.00,,---,0.00,VWS V14.01,2013-01-04 17:23:00,
2013-01-04 11:28:00,28.6,22.3,30.34,SW,232,6.0,21.0,77,0.00,,---,0.00,VWS V14.01,2013-01-04 17:28:00,
2013-01-04 11:30:00,31.1,23.5,30.31,SSW,209,2.0,23.0,73,0.00,,---,0.00,VWS V14.01,2013-01-04 17:30:00,
2013-01-04 11:33:00,29.0,22.7,30.34,SW,234,6.0,18.0,77,0.00,,---,0.00,VWS V14.01,2013-01-04 17:33:00,
2013-01-04 11:38:00,29.2,22.6,30.34,SW,217,13.0,19.0,76,0.00,,---,0.00,VWS V14.01,2013-01-04 17:38:00,
2013-01-04 11:43:00,29.3,22.7,30.34,SW,236,10.0,19.0,76,0.00,,---,0.00,VWS V14.01,2013-01-04 17:43:00,
2013-01-04 11:48:00,29.4,22.8,30.34,SW,236,4.0,21.0,76,0.00,,---,0.00,VWS V14.01,2013-01-04 17:48:00,
2013-01-04 11:53:00,29.6,22.7,30.33,SW,230,7.0,25.0,75,0.00,,---,0.00,VWS V14.01,2013-01-04 17:53:00,
2013-01-04 11:58:00,29.7,22.8,30.33,WSW,239,15.0,25.0,75,0.00,,---,0.00,VWS V14.01,2013-01-04 17:58:00,
2013-01-04 12:00:00,32.1,23.4,30.31,WSW,242,15.0,23.0,70,0.00,,---,0.00,VWS V14.01,2013-01-04 18:00:00,
2013-01-04 12:03:00,29.9,23.0,30.33,WSW,257,15.0,23.0,75,0.00,,---,0.00,VWS V14.01,2013-01-04 18:03:00,
2013-01-04 12:08:00,30.1,23.1,30.33,WSW,240,20.0,23.0,75,0.00,,---,0.00,VWS V14.01,2013-01-04 18:08:00,
2013-01-04 12:13:00,30.4,23.4,30.33,WSW,237,13.0,23.0,75,0.00,,---,0.00,VWS V14.01,2013-01-04 18:13:00,
2013-01-04 12:18:00,30.9,23.9,30.32,WSW,247,13.0,23.0,75,0.00,,---,0.00,VWS V14.01,2013-01-04 18:18:00,
2013-01-04 12:23:00,31.3,24.0,30.32,WSW,247,10.0,23.0,74,0.00,,---,0.00,VWS V14.01,2013-01-04 18:23:00,
2013-01-04 12:29:00,31.1,23.5,30.31,SW,233,4.0,4.0,73,0.00,,---,0.00,VWS V14.01,2013-01-04 18:29:00,
2013-01-04 12:30:00,33.2,24.1,30.30,WSW,244,22.0,25.0,69,0.00,,---,0.00,VWS V14.01,2013-01-04 18:30:00,
2013-01-04 12:34:00,31.4,24.1,30.31,WSW,246,10.0,13.0,74,0.00,,---,0.00,VWS V14.01,2013-01-04 18:34:00,
2013-01-04 12:39:00,31.6,24.0,30.31,SW,225,9.0,19.0,73,0.00,,---,0.00,VWS V14.01,2013-01-04 18:39:00,
2013-01-04 12:44:00,31.9,24.2,30.31,SW,232,6.0,23.0,73,0.00,,---,0.00,VWS V14.01,2013-01-04 18:44:00,
2013-01-04 12:49:00,32.0,24.0,30.31,SW,236,14.0,23.0,72,0.00,,---,0.00,VWS V14.01,2013-01-04 18:49:00,
2013-01-04 12:54:00,32.3,24.3,30.31,WSW,244,9.0,23.0,72,0.00,,---,0.00,VWS V14.01,2013-01-04 18:54:00,
2013-01-04 12:59:00,32.1,23.4,30.30,SW,215,10.0,20.0,70,0.00,,---,0.00,VWS V14.01,2013-01-04 18:59:00,
2013-01-04 13:00:00,33.5,23.7,30.30,South,188,11.0,24.0,67,0.00,,---,0.00,VWS V14.01,2013-01-04 19:00:00,
2013-01-04 13:04:00,32.3,24.3,30.30,SW,227,8.0,20.0,72,0.00,,---,0.00,VWS V14.01,2013-01-04 19:04:00,
2013-01-04 13:09:00,32.3,23.6,30.30,WSW,238,2.0,22.0,70,0.00,,---,0.00,VWS V14.01,2013-01-04 19:09:00,
2013-01-04 13:14:00,32.6,23.9,30.30,WSW,247,11.0,22.0,70,0.00,,---,0.00,VWS V14.01,2013-01-04 19:14:00,
2013-01-04 13:19:00,32.8,24.1,30.30,SW,234,12.0,22.0,70,0.00,,---,0.00,VWS V14.01,2013-01-04 19:19:00,
2013-01-04 13:24:00,33.1,24.4,30.30,WSW,246,14.0,25.0,70,0.00,,---,0.00,VWS V14.01,2013-01-04 19:24:00,
2013-01-04 13:29:00,33.2,24.1,30.30,WSW,241,8.0,22.0,69,0.00,,---,0.00,VWS V14.01,2013-01-04 19:29:00,
2013-01-04 13:30:00,33.7,24.6,30.30,WSW,239,10.0,24.0,69,0.00,,---,0.00,VWS V14.01,2013-01-04 19:30:00,
2013-01-04 13:34:00,33.2,24.1,30.30,WSW,247,13.0,23.0,69,0.00,,---,0.00,VWS V14.01,2013-01-04 19:34:00,
2013-01-04 13:39:00,33.4,24.7,30.30,SSW,208,8.0,23.0,70,0.00,,---,0.00,VWS V14.01,2013-01-04 19:39:00,
2013-01-04 13:44:00,33.4,23.6,30.30,SW,223,16.0,23.0,67,0.00,,---,0.00,VWS V14.01,2013-01-04 19:44:00,
2013-01-04 13:49:00,33.4,24.0,30.30,SW,232,15.0,24.0,68,0.00,,---,0.00,VWS V14.01,2013-01-04 19:49:00,
2013-01-04 13:55:00,33.5,24.1,30.30,SW,236,10.0,24.0,68,0.00,,---,0.00,VWS V14.01,2013-01-04 19:55:00,
2013-01-04 14:00:00,33.5,24.1,30.30,SW,230,5.0,16.0,68,0.00,,---,0.00,VWS V14.01,2013-01-04 20:00:00,
2013-01-04 14:05:00,33.6,23.8,30.30,WSW,247,15.0,21.0,67,0.00,,---,0.00,VWS V14.01,2013-01-04 20:05:00,
2013-01-04 14:10:00,33.4,23.6,30.30,WSW,244,13.0,24.0,67,0.00,,---,0.00,VWS V14.01,2013-01-04 20:10:00,
2013-01-04 14:15:00,33.5,24.1,30.30,SW,232,11.0,24.0,68,0.00,,---,0.00,VWS V14.01,2013-01-04 20:15:00,
2013-01-04 14:20:00,33.6,24.2,30.30,WSW,250,18.0,24.0,68,0.00,,---,0.00,VWS V14.01,2013-01-04 20:20:00,
2013-01-04 14:25:00,33.5,24.1,30.30,WSW,250,15.0,24.0,68,0.00,,---,0.00,VWS V14.01,2013-01-04 20:25:00,
2013-01-04 14:30:00,33.7,24.6,30.30,WSW,245,17.0,19.0,69,0.00,,---,0.00,VWS V14.01,2013-01-04 20:30:00,
2013-01-04 14:35:00,33.7,24.3,30.30,SW,234,15.0,19.0,68,0.00,,---,0.00,VWS V14.01,2013-01-04 20:35:00,
2013-01-04 14:40:00,33.8,24.4,30.30,WSW,241,5.0,21.0,68,0.00,,---,0.00,VWS V14.01,2013-01-04 20:40:00,
2013-01-04 14:45:00,33.8,24.0,30.30,SW,236,15.0,21.0,67,0.00,,---,0.00,VWS V14.01,2013-01-04 20:45:00,
2013-01-04 14:50:00,33.9,24.5,30.30,SW,232,11.0,21.0,68,0.00,,---,0.00,VWS V14.01,2013-01-04 20:50:00,
2013-01-04 14:56:00,34.1,24.7,30.30,West,267,12.0,21.0,68,0.00,,---,0.00,VWS V14.01,2013-01-04 20:56:00,
2013-01-04 15:00:00,33.7,24.6,30.31,West,268,7.0,15.0,69,0.00,,---,0.00,VWS V14.01,2013-01-04 21:00:00,
2013-01-04 15:01:00,34.1,24.3,30.30,WSW,242,8.0,15.0,67,0.00,,---,0.00,VWS V14.01,2013-01-04 21:01:00,
2013-01-04 15:06:00,34.1,24.7,30.30,West,259,2.0,16.0,68,0.00,,---,0.00,VWS V14.01,2013-01-04 21:06:00,
2013-01-04 15:11:00,34.2,24.8,30.30,SW,218,4.0,16.0,68,0.00,,---,0.00,VWS V14.01,2013-01-04 21:11:00,
2013-01-04 15:16:00,34.3,24.9,30.30,SW,232,7.0,16.0,68,0.00,,---,0.00,VWS V14.01,2013-01-04 21:16:00,
2013-01-04 15:21:00,34.5,25.0,30.31,WSW,250,10.0,16.0,68,0.00,,---,0.00,VWS V14.01,2013-01-04 21:21:00,
2013-01-04 15:26:00,34.4,25.0,30.31,WSW,243,3.0,16.0,68,0.00,,---,0.00,VWS V14.01,2013-01-04 21:26:00,
2013-01-04 15:30:00,33.2,24.1,30.30,WSW,252,9.0,15.0,69,0.00,,---,0.00,VWS V14.01,2013-01-04 21:30:00,
2013-01-04 15:31:00,34.5,24.7,30.31,SW,232,8.0,13.0,67,0.00,,---,0.00,VWS V14.01,2013-01-04 21:31:00,
2013-01-04 15:36:00,34.6,24.8,30.31,SSW,211,4.0,13.0,67,0.00,,---,0.00,VWS V14.01,2013-01-04 21:36:00,
2013-01-04 15:41:00,34.5,24.7,30.31,WNW,301,7.0,13.0,67,0.00,,---,0.00,VWS V14.01,2013-01-04 21:41:00,
2013-01-04 15:47:00,34.2,24.8,30.31,SW,234,15.0,15.0,68,0.00,,---,0.00,VWS V14.01,2013-01-04 21:47:00,
2013-01-04 15:52:00,33.9,24.5,30.31,SW,220,7.0,15.0,68,0.00,,---,0.00,VWS V14.01,2013-01-04 21:52:00,
2013-01-04 15:57:00,33.7,24.3,30.31,SW,236,7.0,15.0,68,0.00,,---,0.00,VWS V14.01,2013-01-04 21:57:00,
2013-01-04 16:00:00,32.4,24.1,30.30,WSW,240,4.0,12.0,71,0.00,,---,0.00,VWS V14.01,2013-01-04 22:00:00,
2013-01-04 16:02:00,33.6,24.2,30.31,WSW,238,9.0,13.0,68,0.00,,---,0.00,VWS V14.01,2013-01-04 22:02:00,
2013-01-04 16:07:00,33.5,24.4,30.31,WSW,242,7.0,13.0,69,0.00,,---,0.00,VWS V14.01,2013-01-04 22:07:00,
2013-01-04 16:12:00,33.5,24.4,30.31,SW,235,10.0,13.0,69,0.00,,---,0.00,VWS V14.01,2013-01-04 22:12:00,
2013-01-04 16:17:00,33.4,24.3,30.31,West,261,11.0,13.0,69,0.00,,---,0.00,VWS V14.01,2013-01-04 22:17:00,
2013-01-04 16:22:00,33.3,24.2,30.31,NNW,330,12.0,14.0,69,0.00,,---,0.00,VWS V14.01,2013-01-04 22:22:00,
2013-01-04 16:27:00,33.3,24.2,30.30,SSW,213,4.0,14.0,69,0.00,,---,0.00,VWS V14.01,2013-01-04 22:27:00,
2013-01-04 16:30:00,31.8,23.8,30.31,WSW,237,0.0,11.0,72,0.00,,---,0.00,VWS V14.01,2013-01-04 22:30:00,
2013-01-04 16:32:00,33.2,24.1,30.30,WSW,241,5.0,12.0,69,0.00,,---,0.00,VWS V14.01,2013-01-04 22:32:00,
2013-01-04 16:37:00,33.0,24.3,30.31,WSW,240,3.0,12.0,70,0.00,,---,0.00,VWS V14.01,2013-01-04 22:37:00,
2013-01-04 16:42:00,32.9,24.2,30.30,SW,233,4.0,12.0,70,0.00,,---,0.00,VWS V14.01,2013-01-04 22:42:00,
2013-01-04 16:47:00,32.8,24.1,30.31,NNE,13,7.0,12.0,70,0.00,,---,0.00,VWS V14.01,2013-01-04 22:47:00,
2013-01-04 16:52:00,32.6,24.2,30.31,West,264,3.0,12.0,71,0.00,,---,0.00,VWS V14.01,2013-01-04 22:52:00,
2013-01-04 16:57:00,32.5,24.2,30.31,SW,229,8.0,12.0,71,0.00,,---,0.00,VWS V14.01,2013-01-04 22:57:00,
2013-01-04 17:00:00,31.2,23.6,30.31,SW,232,4.0,9.0,73,0.00,,---,0.00,VWS V14.01,2013-01-04 23:00:00,
2013-01-04 17:02:00,32.3,24.0,30.30,WSW,238,10.0,11.0,71,0.00,,---,0.00,VWS V14.01,2013-01-04 23:02:00,
2013-01-04 17:07:00,32.2,23.9,30.30,SW,234,2.0,11.0,71,0.00,,---,0.00,VWS V14.01,2013-01-04 23:07:00,
2013-01-04 17:13:00,32.0,23.7,30.30,SW,229,2.0,11.0,71,0.00,,---,0.00,VWS V14.01,2013-01-04 23:13:00,
2013-01-04 17:18:00,31.9,23.9,30.30,SW,232,2.0,11.0,72,0.00,,---,0.00,VWS V14.01,2013-01-04 23:18:00,
2013-01-04 17:23:00,31.8,23.8,30.31,SW,230,3.0,11.0,72,0.00,,---,0.00,VWS V14.01,2013-01-04 23:23:00,
2013-01-04 17:28:00,31.8,23.8,30.31,West,261,1.0,11.0,72,0.00,,---,0.00,VWS V14.01,2013-01-04 23:28:00,
2013-01-04 17:30:00,31.5,23.5,30.31,SW,229,5.0,11.0,72,0.00,,---,0.00,VWS V14.01,2013-01-04 23:30:00,
2013-01-04 17:33:00,31.7,23.7,30.31,SW,232,3.0,9.0,72,0.00,,---,0.00,VWS V14.01,2013-01-04 23:33:00,
2013-01-04 17:38:00,31.7,23.7,30.31,SW,219,1.0,9.0,72,0.00,,---,0.00,VWS V14.01,2013-01-04 23:38:00,
2013-01-04 17:43:00,31.5,23.5,30.31,SW,233,0.0,9.0,72,0.00,,---,0.00,VWS V14.01,2013-01-04 23:43:00,
2013-01-04 17:48:00,31.4,23.8,30.31,SSW,205,0.0,9.0,73,0.00,,---,0.00,VWS V14.01,2013-01-04 23:48:00,
2013-01-04 17:53:00,31.2,23.6,30.31,SSW,196,1.0,9.0,73,0.00,,---,0.00,VWS V14.01,2013-01-04 23:53:00,
2013-01-04 17:58:00,31.2,23.6,30.31,SW,227,1.0,9.0,73,0.00,,---,0.00,VWS V14.01,2013-01-04 23:58:00,
2013-01-04 18:00:00,31.4,23.8,30.31,WSW,240,6.0,11.0,73,0.00,,---,0.00,VWS V14.01,2013-01-05 00:00:00,
2013-01-04 18:03:00,31.2,23.6,30.31,SW,223,3.0,8.0,73,0.00,,---,0.00,VWS V14.01,2013-01-05 00:03:00,
2013-01-04 18:08:00,31.3,23.7,30.31,SW,235,1.0,11.0,73,0.00,,---,0.00,VWS V14.01,2013-01-05 00:08:00,
2013-01-04 18:13:00,31.4,23.8,30.31,WSW,238,5.0,11.0,73,0.00,,---,0.00,VWS V14.01,2013-01-05 00:13:00,
2013-01-04 18:18:00,31.5,23.9,30.31,NNW,344,6.0,11.0,73,0.00,,---,0.00,VWS V14.01,2013-01-05 00:18:00,
2013-01-04 18:23:00,31.4,23.8,30.31,WSW,251,6.0,11.0,73,0.00,,---,0.00,VWS V14.01,2013-01-05 00:23:00,
2013-01-04 18:28:00,31.5,23.5,30.31,SW,229,4.0,11.0,72,0.00,,---,0.00,VWS V14.01,2013-01-05 00:28:00,
2013-01-04 18:30:00,31.2,23.6,30.31,SW,225,4.0,11.0,73,0.00,,---,0.00,VWS V14.01,2013-01-05 00:30:00,
2013-01-04 18:33:00,31.6,23.6,30.31,West,259,5.0,9.0,72,0.00,,---,0.00,VWS V14.01,2013-01-05 00:33:00,
2013-01-04 18:38:00,31.5,23.5,30.31,SW,236,2.0,9.0,72,0.00,,---,0.00,VWS V14.01,2013-01-05 00:38:00,
2013-01-04 18:43:00,31.5,23.9,30.31,West,266,11.0,11.0,73,0.00,,---,0.00,VWS V14.01,2013-01-05 00:43:00,
2013-01-04 18:49:00,31.5,23.5,30.31,SW,224,1.0,11.0,72,0.00,,---,0.00,VWS V14.01,2013-01-05 00:49:00,
2013-01-04 18:54:00,31.5,23.5,30.31,SW,223,2.0,11.0,72,0.00,,---,0.00,VWS V14.01,2013-01-05 00:54:00,
2013-01-04 18:59:00,31.4,23.8,30.31,North,360,7.0,7.0,73,0.00,,---,0.00,VWS V14.01,2013-01-05 00:59:00,
2013-01-04 19:00:00,30.7,23.4,30.32,WSW,246,2.0,11.0,74,0.00,,---,0.00,VWS V14.01,2013-01-05 01:00:00,
2013-01-04 19:04:00,31.4,23.8,30.31,WSW,246,10.0,10.0,73,0.00,,---,0.00,VWS V14.01,2013-01-05 01:04:00,
2013-01-04 19:09:00,31.4,23.8,30.31,SW,233,3.0,11.0,73,0.00,,---,0.00,VWS V14.01,2013-01-05 01:09:00,
2013-01-04 19:14:00,31.4,23.8,30.31,SW,233,6.0,11.0,73,0.00,,---,0.00,VWS V14.01,2013-01-05 01:14:00,
2013-01-04 19:19:00,31.3,23.7,30.31,NW,304,5.0,11.0,73,0.00,,---,0.00,VWS V14.01,2013-01-05 01:19:00,
2013-01-04 19:24:00,31.3,23.7,30.31,WSW,237,2.0,11.0,73,0.00,,---,0.00,VWS V14.01,2013-01-05 01:24:00,
2013-01-04 19:29:00,31.2,23.6,30.31,WSW,237,7.0,8.0,73,0.00,,---,0.00,VWS V14.01,2013-01-05 01:29:00,
2013-01-04 19:30:00,30.2,22.9,30.31,SW,219,0.0,8.0,74,0.00,,---,0.00,VWS V14.01,2013-01-05 01:30:00,
2013-01-04 19:34:00,31.2,23.6,30.31,NW,306,2.0,8.0,73,0.00,,---,0.00,VWS V14.01,2013-01-05 01:34:00,
2013-01-04 19:39:00,31.2,23.6,30.31,West,278,6.0,8.0,73,0.00,,---,0.00,VWS V14.01,2013-01-05 01:39:00,
2013-01-04 19:44:00,31.0,23.4,30.31,SW,230,5.0,11.0,73,0.00,,---,0.00,VWS V14.01,2013-01-05 01:44:00,
2013-01-04 19:49:00,31.0,23.4,30.31,SW,225,3.0,11.0,73,0.00,,---,0.00,VWS V14.01,2013-01-05 01:49:00,
2013-01-04 19:54:00,30.9,23.3,30.32,SW,232,7.0,11.0,73,0.00,,---,0.00,VWS V14.01,2013-01-05 01:54:00,
2013-01-04 19:59:00,30.7,23.4,30.32,SW,229,4.0,6.0,74,0.00,,---,0.00,VWS V14.01,2013-01-05 01:59:00,
2013-01-04 20:00:00,29.3,22.7,30.30,SW,232,1.0,5.0,76,0.00,,---,0.00,VWS V14.01,2013-01-05 02:00:00,
2013-01-04 20:04:00,30.7,23.4,30.31,WSW,237,2.0,8.0,74,0.00,,---,0.00,VWS V14.01,2013-01-05 02:04:00,
2013-01-04 20:09:00,30.6,23.3,30.31,SW,219,2.0,8.0,74,0.00,,---,0.00,VWS V14.01,2013-01-05 02:09:00,
2013-01-04 20:14:00,30.5,23.2,30.31,SW,221,1.0,8.0,74,0.00,,---,0.00,VWS V14.01,2013-01-05 02:14:00,
2013-01-04 20:20:00,30.4,23.1,30.32,SW,219,0.0,8.0,74,0.00,,---,0.00,VWS V14.01,2013-01-05 02:20:00,
2013-01-04 20:25:00,30.3,23.3,30.32,SW,235,0.0,8.0,75,0.00,,---,0.00,VWS V14.01,2013-01-05 02:25:00,
2013-01-04 20:30:00,30.2,23.2,30.31,SW,227,0.0,4.0,75,0.00,,---,0.00,VWS V14.01,2013-01-05 02:30:00,
2013-01-04 20:35:00,30.0,23.0,30.31,SW,220,1.0,4.0,75,0.00,,---,0.00,VWS V14.01,2013-01-05 02:35:00,
2013-01-04 20:40:00,29.8,22.9,30.31,SW,232,1.0,4.0,75,0.00,,---,0.00,VWS V14.01,2013-01-05 02:40:00,
2013-01-04 20:45:00,29.6,23.0,30.31,WSW,237,2.0,4.0,76,0.00,,---,0.00,VWS V14.01,2013-01-05 02:45:00,
2013-01-04 20:50:00,29.5,22.9,30.30,SW,230,2.0,5.0,76,0.00,,---,0.00,VWS V14.01,2013-01-05 02:50:00,
2013-01-04 20:55:00,29.4,22.8,30.30,SW,230,3.0,5.0,76,0.00,,---,0.00,VWS V14.01,2013-01-05 02:55:00,
2013-01-04 21:00:00,29.3,22.7,30.30,SW,232,2.0,2.0,76,0.00,,---,0.00,VWS V14.01,2013-01-05 03:00:00,
2013-01-04 21:05:00,29.2,22.9,30.30,SW,233,1.0,2.0,77,0.00,,---,0.00,VWS V14.01,2013-01-05 03:05:00,
2013-01-04 21:10:00,29.2,22.9,30.30,SW,223,0.0,2.0,77,0.00,,---,0.00,VWS V14.01,2013-01-05 03:10:00,
2013-01-04 21:15:00,29.0,22.7,30.30,SSW,212,0.0,2.0,77,0.00,,---,0.00,VWS V14.01,2013-01-05 03:15:00,
2013-01-04 21:20:00,29.0,22.7,30.30,SSW,198,0.0,3.0,77,0.00,,---,0.00,VWS V14.01,2013-01-05 03:20:00,
2013-01-04 21:25:00,28.9,22.6,30.30,SSW,192,1.0,4.0,77,0.00,,---,0.00,VWS V14.01,2013-01-05 03:25:00,
2013-01-04 21:30:00,28.7,22.4,30.31,SSW,192,2.0,3.0,77,0.00,,---,0.00,VWS V14.01,2013-01-05 03:30:00,
2013-01-04 21:35:00,28.5,22.5,30.31,South,187,1.0,4.0,78,0.00,,---,0.00,VWS V14.01,2013-01-05 03:35:00,
2013-01-04 21:41:00,28.4,22.4,30.31,South,189,3.0,4.0,78,0.00,,---,0.00,VWS V14.01,2013-01-05 03:41:00,
2013-01-04 21:46:00,28.1,22.1,30.31,South,190,2.0,5.0,78,0.00,,---,0.00,VWS V14.01,2013-01-05 03:46:00,
2013-01-04 21:51:00,28.0,22.3,30.31,South,190,2.0,5.0,79,0.00,,---,0.00,VWS V14.01,2013-01-05 03:51:00,
2013-01-04 21:56:00,27.9,22.2,30.31,South,188,1.0,5.0,79,0.00,,---,0.00,VWS V14.01,2013-01-05 03:56:00,
2013-01-04 22:00:00,27.2,21.9,30.31,South,191,1.0,4.0,80,0.00,,---,0.00,VWS V14.01,2013-01-05 04:00:00,
2013-01-04 22:01:00,27.7,22.0,30.31,South,186,2.0,4.0,79,0.00,,---,0.00,VWS V14.01,2013-01-05 04:01:00,
2013-01-04 22:06:00,27.6,22.0,30.31,South,186,4.0,5.0,79,0.00,,---,0.00,VWS V14.01,2013-01-05 04:06:00,
2013-01-04 22:11:00,27.5,21.9,30.31,South,190,5.0,5.0,79,0.00,,---,0.00,VWS V14.01,2013-01-05 04:11:00,
2013-01-04 22:16:00,27.5,21.9,30.31,South,180,1.0,5.0,79,0.00,,---,0.00,VWS V14.01,2013-01-05 04:16:00,
2013-01-04 22:21:00,27.4,21.8,30.31,South,184,2.0,5.0,79,0.00,,---,0.00,VWS V14.01,2013-01-05 04:21:00,
2013-01-04 22:26:00,27.3,22.0,30.30,South,186,0.0,5.0,80,0.00,,---,0.00,VWS V14.01,2013-01-05 04:26:00,
2013-01-04 22:30:00,27.4,22.0,30.31,SW,229,1.0,5.0,80,0.00,,---,0.00,VWS V14.01,2013-01-05 04:30:00,
2013-01-04 22:31:00,27.3,22.0,30.30,South,184,1.0,2.0,80,0.00,,---,0.00,VWS V14.01,2013-01-05 04:31:00,
2013-01-04 22:36:00,27.2,21.9,30.30,South,189,0.0,3.0,80,0.00,,---,0.00,VWS V14.01,2013-01-05 04:36:00,
2013-01-04 22:41:00,27.3,22.0,30.30,SSW,192,0.0,3.0,80,0.00,,---,0.00,VWS V14.01,2013-01-05 04:41:00,
2013-01-04 22:47:00,27.2,21.9,30.31,South,190,1.0,4.0,80,0.00,,---,0.00,VWS V14.01,2013-01-05 04:47:00,
2013-01-04 22:52:00,27.2,21.9,30.31,SSW,192,1.0,4.0,80,0.00,,---,0.00,VWS V14.01,2013-01-05 04:52:00,
2013-01-04 22:57:00,27.2,21.9,30.31,SSW,202,1.0,4.0,80,0.00,,---,0.00,VWS V14.01,2013-01-05 04:57:00,
2013-01-04 23:00:00,27.3,22.0,30.31,SSW,196,0.0,3.0,80,0.00,,---,0.00,VWS V14.01,2013-01-05 05:00:00,
2013-01-04 23:03:00,27.4,22.0,30.31,SSW,197,0.0,3.0,80,0.00,,---,0.00,VWS V14.01,2013-01-05 05:03:00,
2013-01-04 23:08:00,27.5,22.1,30.31,SW,223,1.0,4.0,80,0.00,,---,0.00,VWS V14.01,2013-01-05 05:08:00,
2013-01-04 23:13:00,27.5,22.1,30.31,SSW,196,1.0,4.0,80,0.00,,---,0.00,VWS V14.01,2013-01-05 05:13:00,
2013-01-04 23:18:00,27.4,22.0,30.31,SSW,203,0.0,4.0,80,0.00,,---,0.00,VWS V14.01,2013-01-05 05:18:00,
2013-01-04 23:23:00,27.5,22.1,30.31,SSW,192,1.0,5.0,80,0.00,,---,0.00,VWS V14.01,2013-01-05 05:23:00,
2013-01-04 23:28:00,27.4,22.0,30.31,SW,228,2.0,5.0,80,0.00,,---,0.00,VWS V14.01,2013-01-05 05:28:00,
2013-01-04 23:30:00,26.8,21.8,30.29,South,190,2.0,5.0,81,0.00,,---,0.00,VWS V14.01,2013-01-05 05:30:00,
2013-01-04 23:33:00,27.4,22.0,30.31,SSW,208,1.0,2.0,80,0.00,,---,0.00,VWS V14.01,2013-01-05 05:33:00,
2013-01-04 23:38:00,27.5,22.1,30.30,SSW,203,0.0,4.0,80,0.00,,---,0.00,VWS V14.01,2013-01-05 05:38:00,
2013-01-04 23:44:00,27.5,22.1,30.30,SSW,194,1.0,4.0,80,0.00,,---,0.00,VWS V14.01,2013-01-05 05:44:00,
2013-01-04 23:49:00,27.4,22.0,30.30,SSW,194,2.0,4.0,80,0.00,,---,0.00,VWS V14.01,2013-01-05 05:49:00,
2013-01-04 23:54:00,27.4,22.0,30.30,SSW,192,0.0,4.0,80,0.00,,---,0.00,VWS V14.01,2013-01-05 05:54:00,
2013-01-04 23:59:00,27.3,22.0,30.30,SSW,196,1.0,2.0,80,0.00,,---,0.00,VWS V14.01,2013-01-05 05:59:00,